Time;durP1;ratioP1;P1;durP2;ratioP2;P2;SDS_P1;SDS_P2;PMS_P1;PMS_P2;Temp;Humidity;BMP_temperature;BMP_pressure;BME280_temperature;BME280_humidity;BME280_pressure;Samples;Min_cycle;Max_cycle;Signal;HPM_P1;HPM_P2
2023/12/11 00:00:24;;;;;;;27.83;25.38;;;9.30;99.90;;;;;;5122465;28;20455;-81
2023/12/11 00:02:49;;;;;;;29.10;26.70;;;9.20;99.90;;;;;;5124356;28;20080;-79
2023/12/11 00:05:15;;;;;;;32.03;29.38;;;9.10;99.90;;;;;;5105293;28;20039;-79
2023/12/11 00:07:41;;;;;;;29.23;27.08;;;9.10;99.90;;;;;;5106439;28;20044;-79
2023/12/11 00:10:07;;;;;;;29.15;26.77;;;9.20;99.90;;;;;;5123501;28;20176;-75
2023/12/11 00:12:33;;;;;;;31.52;28.75;;;9.20;99.90;;;;;;5124760;28;20078;-83
2023/12/11 00:14:59;;;;;;;27.45;24.83;;;9.20;99.90;;;;;;5122929;28;20044;-83
2023/12/11 00:17:27;;;;;;;27.92;25.60;;;9.10;99.90;;;;;;5088365;28;20051;-79
2023/12/11 00:19:53;;;;;;;29.45;26.88;;;9.10;99.90;;;;;;5123723;28;20155;-82
2023/12/11 00:22:19;;;;;;;28.23;25.98;;;9.10;99.90;;;;;;5123259;28;20036;-82
2023/12/11 00:24:44;;;;;;;26.90;24.38;;;8.90;99.90;;;;;;5123679;28;20074;-80
2023/12/11 00:27:11;;;;;;;26.55;24.02;;;9.00;99.90;;;;;;5122016;28;20036;-81
2023/12/11 00:29:38;;;;;;;28.60;25.20;;;9.00;99.90;;;;;;5120998;28;20055;-84
2023/12/11 00:32:04;;;;;;;24.63;22.58;;;8.90;99.90;;;;;;5124172;28;20141;-79
2023/12/11 00:34:32;;;;;;;27.27;24.77;;;8.90;99.90;;;;;;5121369;28;20040;-81
2023/12/11 00:36:58;;;;;;;28.38;25.65;;;8.90;99.90;;;;;;5124658;28;20040;-79
2023/12/11 00:39:24;;;;;;;27.30;24.75;;;8.90;99.90;;;;;;5121526;28;20558;-81
2023/12/11 00:41:50;;;;;;;27.27;25.13;;;8.80;99.90;;;;;;5124829;28;20039;-77
2023/12/11 00:44:16;;;;;;;26.45;24.38;;;8.80;99.90;;;;;;5121186;28;20471;-80
2023/12/11 00:46:42;;;;;;;27.42;24.85;;;8.80;99.90;;;;;;5122741;28;20063;-79
2023/12/11 00:49:08;;;;;;;28.30;25.92;;;8.70;99.90;;;;;;5122430;28;20100;-83
2023/12/11 00:51:34;;;;;;;29.65;25.23;;;8.70;99.90;;;;;;5122229;28;20047;-82
2023/12/11 00:54:00;;;;;;;28.23;23.70;;;8.70;99.90;;;;;;5123192;28;20070;-81
2023/12/11 00:56:26;;;;;;;26.73;24.15;;;8.70;99.90;;;;;;5120941;28;20356;-83
2023/12/11 00:58:51;;;;;;;26.38;24.02;;;8.70;99.90;;;;;;5123231;28;20108;-81
2023/12/11 01:01:17;;;;;;;27.23;24.67;;;8.70;99.90;;;;;;5120996;28;20039;-80
2023/12/11 01:03:43;;;;;;;25.42;23.10;;;8.70;99.90;;;;;;5122856;28;20105;-81
2023/12/11 01:06:08;;;;;;;22.65;20.92;;;8.70;99.90;;;;;;5123326;28;20032;-78
2023/12/11 01:08:38;;;;;;;24.05;22.52;;;8.70;99.90;;;;;;5121844;28;20047;-81
2023/12/11 01:11:04;;;;;;;24.10;21.95;;;8.70;99.90;;;;;;5121428;28;20047;-77
2023/12/11 01:13:30;;;;;;;23.20;20.55;;;8.70;99.90;;;;;;5121976;28;20072;-75
2023/12/11 01:15:56;;;;;;;21.17;18.98;;;8.70;99.90;;;;;;5122147;28;20046;-78
2023/12/11 01:18:23;;;;;;;20.80;18.65;;;8.70;99.90;;;;;;5120760;28;20032;-78
2023/12/11 01:20:50;;;;;;;20.88;18.95;;;8.60;99.90;;;;;;5123665;28;20050;-75
2023/12/11 01:23:15;;;;;;;21.95;19.85;;;8.60;99.90;;;;;;5122842;28;20039;-79
2023/12/11 01:25:41;;;;;;;21.90;19.83;;;8.60;99.90;;;;;;5123307;28;20124;-77
2023/12/11 01:28:07;;;;;;;23.90;22.00;;;8.60;99.90;;;;;;5121647;28;20577;-79
2023/12/11 01:30:32;;;;;;;24.33;22.35;;;8.60;99.90;;;;;;5119521;28;20055;-77
2023/12/11 01:32:58;;;;;;;24.10;22.00;;;8.50;99.90;;;;;;5119976;28;20051;-78
2023/12/11 01:35:24;;;;;;;24.85;22.52;;;8.50;99.90;;;;;;5118823;28;20522;-81
2023/12/11 01:37:49;;;;;;;25.45;23.23;;;8.50;99.90;;;;;;5122851;28;20426;-82
2023/12/11 01:40:15;;;;;;;25.13;22.98;;;8.60;99.90;;;;;;5120489;28;20039;-77
2023/12/11 01:42:41;;;;;;;24.40;22.63;;;8.60;99.90;;;;;;5121393;28;20048;-79
2023/12/11 01:45:07;;;;;;;26.77;24.50;;;8.60;99.90;;;;;;5121773;28;20043;-79
2023/12/11 01:47:33;;;;;;;25.50;23.60;;;8.70;99.90;;;;;;5120409;28;20039;-77
2023/12/11 01:49:59;;;;;;;25.20;22.70;;;8.70;99.90;;;;;;5121167;28;20040;-75
2023/12/11 01:52:25;;;;;;;26.73;24.20;;;8.70;99.90;;;;;;5119721;28;20050;-79
2023/12/11 01:54:52;;;;;;;24.67;22.48;;;8.70;99.90;;;;;;5104973;28;20100;-80
2023/12/11 01:57:17;;;;;;;27.50;24.80;;;8.70;99.90;;;;;;5120151;28;20043;-75
2023/12/11 01:59:44;;;;;;;24.73;22.17;;;8.60;99.90;;;;;;5122935;28;20051;-76
2023/12/11 02:02:10;;;;;;;25.45;23.02;;;8.70;99.90;;;;;;5122782;28;20491;-77
2023/12/11 02:04:36;;;;;;;25.02;22.52;;;8.70;99.90;;;;;;5120980;28;20059;-76
2023/12/11 02:07:01;;;;;;;26.85;24.80;;;8.70;99.90;;;;;;5121830;28;20097;-78
2023/12/11 02:09:27;;;;;;;26.83;24.80;;;8.70;99.90;;;;;;5120967;28;20127;-77
2023/12/11 02:11:55;;;;;;;25.75;23.40;;;8.60;99.90;;;;;;5122302;28;20043;-79
2023/12/11 02:14:21;;;;;;;25.90;23.75;;;8.70;99.90;;;;;;5119308;28;20055;-75
2023/12/11 02:16:47;;;;;;;26.35;24.23;;;8.70;99.90;;;;;;5123118;28;20047;-74
2023/12/11 02:19:13;;;;;;;26.27;23.80;;;8.80;99.90;;;;;;5122141;28;20043;-77
2023/12/11 02:21:39;;;;;;;28.85;25.00;;;8.70;99.90;;;;;;5121465;28;20048;-79
2023/12/11 02:24:08;;;;;;;31.55;29.13;;;8.70;99.90;;;;;;5121236;28;20031;-77
2023/12/11 02:26:34;;;;;;;29.08;26.48;;;8.70;99.90;;;;;;5119184;28;20075;-75
2023/12/11 02:29:00;;;;;;;29.75;27.05;;;8.80;99.90;;;;;;5104604;28;20043;-80
2023/12/11 02:31:26;;;;;;;29.38;26.88;;;8.80;99.90;;;;;;5119148;28;20103;-82
2023/12/11 02:33:51;;;;;;;29.38;26.70;;;8.70;99.90;;;;;;5103959;28;20082;-79
2023/12/11 02:36:17;;;;;;;27.48;24.98;;;8.70;99.90;;;;;;5120500;28;20079;-78
2023/12/11 02:38:43;;;;;;;28.27;25.65;;;8.70;99.90;;;;;;5119898;28;20044;-77
2023/12/11 02:41:09;;;;;;;25.05;22.73;;;8.70;99.90;;;;;;5121100;28;20126;-83
2023/12/11 02:43:35;;;;;;;29.42;26.83;;;8.70;99.90;;;;;;5118606;28;20047;-76
2023/12/11 02:46:02;;;;;;;28.20;25.50;;;8.70;99.90;;;;;;5104448;28;20127;-79
2023/12/11 02:48:28;;;;;;;31.08;28.13;;;8.70;99.90;;;;;;5119118;28;20048;-78
2023/12/11 02:50:54;;;;;;;29.17;26.73;;;8.70;99.90;;;;;;5121382;28;20048;-79
2023/12/11 02:53:20;;;;;;;29.27;26.60;;;8.80;99.90;;;;;;5120548;28;20039;-80
2023/12/11 02:55:46;;;;;;;27.85;25.13;;;8.80;99.90;;;;;;5103309;28;20039;-79
2023/12/11 02:58:11;;;;;;;29.00;26.40;;;8.90;99.90;;;;;;5123017;28;20052;-77
2023/12/11 03:00:37;;;;;;;25.60;23.48;;;8.90;99.90;;;;;;5120245;28;20406;-78
2023/12/11 03:03:03;;;;;;;25.83;23.52;;;9.00;99.90;;;;;;5121229;28;20099;-80
2023/12/11 03:05:29;;;;;;;27.48;24.83;;;9.00;99.90;;;;;;5120001;28;20107;-79
2023/12/11 03:07:54;;;;;;;27.00;24.65;;;9.00;99.90;;;;;;5120974;28;20028;-76
2023/12/11 03:10:21;;;;;;;28.52;25.63;;;9.00;99.90;;;;;;5119602;28;20054;-83
2023/12/11 03:12:47;;;;;;;28.02;25.17;;;9.00;99.90;;;;;;5103318;28;20047;-80
2023/12/11 03:15:13;;;;;;;28.70;25.83;;;9.10;99.90;;;;;;5122137;28;20063;-80
2023/12/11 03:17:38;;;;;;;31.38;29.23;;;9.10;99.90;;;;;;5120519;28;20046;-79
2023/12/11 03:20:06;;;;;;;33.50;31.10;;;9.00;99.90;;;;;;5122321;28;20047;-75
2023/12/11 03:22:32;;;;;;;32.15;29.10;;;9.00;99.90;;;;;;5120467;28;20067;-79
2023/12/11 03:24:57;;;;;;;33.22;30.40;;;9.10;99.90;;;;;;5121242;28;20039;-83
2023/12/11 03:27:23;;;;;;;30.67;27.55;;;9.00;99.90;;;;;;5119774;28;20051;-83
2023/12/11 03:29:49;;;;;;;33.13;30.48;;;9.10;99.90;;;;;;5120412;28;20039;-83
2023/12/11 03:32:15;;;;;;;32.83;30.17;;;9.10;99.90;;;;;;5120384;28;20063;-77
2023/12/11 03:34:41;;;;;;;31.02;28.13;;;9.00;99.90;;;;;;5119290;28;20044;-82
2023/12/11 03:37:08;;;;;;;30.95;27.90;;;9.10;99.90;;;;;;5120383;28;20047;-77
2023/12/11 03:39:34;;;;;;;33.13;30.10;;;9.20;99.90;;;;;;5118683;28;20044;-83
2023/12/11 03:42:00;;;;;;;33.72;30.80;;;9.10;99.90;;;;;;5121544;28;20527;-83
2023/12/11 03:44:25;;;;;;;32.25;30.00;;;9.10;99.90;;;;;;5119193;28;20031;-79
2023/12/11 03:46:51;;;;;;;32.10;29.52;;;9.10;99.90;;;;;;5120146;28;20075;-80
2023/12/11 03:49:18;;;;;;;34.80;31.67;;;9.10;99.90;;;;;;5122033;28;20116;-81
2023/12/11 03:51:48;;;;;;;33.55;30.50;;;9.10;99.90;;;;;;5119603;28;20054;-81
2023/12/11 03:54:14;;;;;;;36.38;33.83;;;9.00;99.90;;;;;;5121700;28;20426;-83
2023/12/11 03:56:40;;;;;;;38.15;35.47;;;9.00;99.90;;;;;;5121921;28;20031;-80
2023/12/11 03:59:06;;;;;;;39.53;36.53;;;9.00;99.90;;;;;;5090245;28;20042;-78
2023/12/11 04:01:32;;;;;;;37.58;34.47;;;9.00;99.90;;;;;;5122511;28;20055;-77
2023/12/11 04:03:59;;;;;;;37.75;35.15;;;9.00;99.90;;;;;;5123761;28;20407;-76
2023/12/11 04:06:24;;;;;;;43.38;40.35;;;9.00;99.90;;;;;;5123946;28;20036;-79
2023/12/11 04:08:50;;;;;;;45.47;42.50;;;9.00;99.90;;;;;;5122406;28;20039;-78
2023/12/11 04:11:16;;;;;;;41.97;39.00;;;8.90;99.90;;;;;;5123779;28;20068;-78
2023/12/11 04:13:42;;;;;;;45.00;41.65;;;8.90;99.90;;;;;;5122911;28;20051;-79
2023/12/11 04:16:08;;;;;;;44.92;41.83;;;8.90;99.90;;;;;;5124051;28;20048;-80
2023/12/11 04:18:36;;;;;;;40.35;37.47;;;8.90;99.90;;;;;;5123610;28;20081;-80
2023/12/11 04:21:02;;;;;;;35.78;33.78;;;9.00;99.90;;;;;;5123604;28;20039;-76
2023/12/11 04:23:28;;;;;;;33.88;31.80;;;8.90;99.90;;;;;;5124938;27;20067;-77
2023/12/11 04:25:54;;;;;;;34.90;32.53;;;9.00;99.90;;;;;;5122584;28;20445;-78
2023/12/11 04:28:21;;;;;;;32.17;29.50;;;9.00;99.90;;;;;;5124310;28;20059;-79
2023/12/11 04:30:47;;;;;;;30.95;28.02;;;9.10;99.90;;;;;;5121289;28;20039;-75
2023/12/11 04:33:13;;;;;;;29.25;26.67;;;9.20;99.90;;;;;;5121428;28;20048;-78
2023/12/11 04:35:38;;;;;;;29.08;26.95;;;9.10;99.90;;;;;;5120869;28;20075;-82
2023/12/11 04:38:04;;;;;;;29.33;26.77;;;9.10;99.90;;;;;;5121374;28;20108;-77
2023/12/11 04:40:30;;;;;;;28.15;25.38;;;9.10;99.90;;;;;;5122337;28;20070;-78
2023/12/11 04:42:55;;;;;;;25.85;23.70;;;9.10;99.90;;;;;;5123372;28;20039;-78
2023/12/11 04:45:21;;;;;;;22.65;20.65;;;9.10;99.90;;;;;;5122921;28;20040;-78
2023/12/11 04:47:47;;;;;;;24.00;21.55;;;9.20;99.90;;;;;;5122067;28;20135;-79
2023/12/11 04:50:13;;;;;;;26.00;21.25;;;9.20;99.90;;;;;;5124756;28;20501;-79
2023/12/11 04:52:38;;;;;;;24.02;22.15;;;9.20;99.90;;;;;;5121641;28;20047;-77
2023/12/11 04:55:04;;;;;;;24.02;21.67;;;9.20;99.90;;;;;;5124801;28;20043;-78
2023/12/11 04:57:30;;;;;;;27.48;25.25;;;9.20;99.90;;;;;;5123109;28;20036;-81
2023/12/11 04:59:56;;;;;;;23.50;21.70;;;9.20;99.90;;;;;;5122993;28;20046;-76
2023/12/11 05:02:22;;;;;;;26.80;24.52;;;9.10;99.90;;;;;;5123372;28;20054;-80
2023/12/11 05:04:47;;;;;;;23.75;21.33;;;9.20;99.90;;;;;;5122847;28;20048;-78
2023/12/11 05:07:13;;;;;;;23.85;21.02;;;9.20;99.90;;;;;;5121960;28;20055;-77
2023/12/11 05:09:39;;;;;;;25.38;22.83;;;9.20;99.90;;;;;;5121437;28;20040;-78
2023/12/11 05:12:05;;;;;;;24.42;22.50;;;9.20;99.90;;;;;;5122599;28;20063;-80
2023/12/11 05:14:31;;;;;;;25.70;23.33;;;9.20;99.90;;;;;;5123035;28;20071;-76
2023/12/11 05:16:56;;;;;;;21.52;19.67;;;9.10;99.90;;;;;;5122104;28;20107;-78
2023/12/11 05:19:22;;;;;;;23.10;21.02;;;9.10;99.90;;;;;;5124295;28;20042;-80
2023/12/11 05:21:48;;;;;;;22.05;18.67;;;9.10;99.90;;;;;;5121029;28;20535;-78
2023/12/11 05:24:14;;;;;;;20.23;18.40;;;9.10;99.90;;;;;;5123087;28;20126;-78
2023/12/11 05:26:40;;;;;;;21.10;18.92;;;9.20;99.90;;;;;;5121537;28;20050;-75
2023/12/11 05:29:06;;;;;;;20.88;18.48;;;9.20;99.90;;;;;;5122455;28;20463;-76
2023/12/11 05:31:32;;;;;;;19.90;17.83;;;9.10;99.90;;;;;;5122386;28;20054;-79
2023/12/11 05:33:58;;;;;;;24.25;21.08;;;9.10;99.90;;;;;;5121980;28;20048;-80
2023/12/11 05:36:23;;;;;;;22.80;20.52;;;9.10;99.90;;;;;;5123147;28;20036;-81
2023/12/11 05:38:49;;;;;;;23.35;20.85;;;9.10;99.90;;;;;;5122058;28;20047;-78
2023/12/11 05:41:15;;;;;;;22.80;20.15;;;9.10;99.90;;;;;;5121972;28;20047;-79
2023/12/11 05:43:41;;;;;;;23.92;21.65;;;9.10;99.90;;;;;;5120128;28;20050;-75
2023/12/11 05:46:07;;;;;;;24.30;19.48;;;9.10;99.90;;;;;;5122748;28;20617;-79
2023/12/11 05:48:33;;;;;;;21.65;19.17;;;9.20;99.90;;;;;;5121586;28;20118;-83
2023/12/11 05:50:59;;;;;;;20.58;18.70;;;9.20;99.90;;;;;;5122014;28;20090;-80
2023/12/11 05:53:25;;;;;;;21.98;19.42;;;9.10;99.90;;;;;;5123089;28;20118;-78
2023/12/11 05:55:51;;;;;;;20.05;18.05;;;9.20;99.90;;;;;;5120742;28;20140;-79
2023/12/11 05:58:17;;;;;;;19.80;18.05;;;9.20;99.90;;;;;;5123681;28;20100;-79
2023/12/11 06:00:44;;;;;;;20.67;18.90;;;9.10;99.90;;;;;;5119714;28;20035;-79
2023/12/11 06:03:10;;;;;;;23.33;21.13;;;9.00;99.90;;;;;;5123648;28;20124;-80
2023/12/11 06:05:36;;;;;;;28.65;26.73;;;9.00;99.90;;;;;;5121448;28;20463;-83
2023/12/11 06:08:02;;;;;;;29.65;27.20;;;9.00;99.90;;;;;;5123445;28;20093;-82
2023/12/11 06:10:28;;;;;;;27.23;24.98;;;8.90;99.90;;;;;;5121863;28;20042;-79
2023/12/11 06:12:53;;;;;;;28.45;26.13;;;8.90;99.90;;;;;;5119382;28;20077;-82
2023/12/11 06:15:19;;;;;;;28.17;25.95;;;8.90;99.90;;;;;;5121183;28;20111;-82
2023/12/11 06:17:45;;;;;;;31.77;29.40;;;8.90;99.90;;;;;;5119620;28;20126;-78
2023/12/11 06:20:11;;;;;;;27.83;25.73;;;8.90;99.90;;;;;;5123166;28;20457;-81
2023/12/11 06:22:36;;;;;;;25.42;23.50;;;8.90;99.90;;;;;;5119981;28;20086;-75
2023/12/11 06:25:02;;;;;;;24.45;22.60;;;8.90;99.90;;;;;;5123258;28;20039;-76
2023/12/11 06:27:28;;;;;;;24.05;22.15;;;8.90;99.90;;;;;;5120667;28;20131;-77
2023/12/11 06:29:55;;;;;;;21.85;20.45;;;9.00;99.90;;;;;;5120462;28;20035;-77
2023/12/11 06:32:21;;;;;;;22.60;21.10;;;9.00;99.90;;;;;;5123408;27;20040;-80
2023/12/11 06:34:47;;;;;;;20.10;18.73;;;9.00;99.90;;;;;;5120917;28;20044;-83
2023/12/11 06:37:12;;;;;;;19.85;18.23;;;9.00;99.90;;;;;;5123049;28;20054;-80
2023/12/11 06:39:38;;;;;;;21.60;19.83;;;9.10;99.90;;;;;;5102609;28;20044;-79
2023/12/11 06:42:04;;;;;;;21.13;18.90;;;9.10;99.90;;;;;;5120962;28;20048;-84
2023/12/11 06:44:30;;;;;;;20.73;18.60;;;9.10;99.90;;;;;;5121130;28;20047;-79
2023/12/11 06:46:56;;;;;;;20.33;18.63;;;9.10;99.90;;;;;;5122194;28;20035;-80
2023/12/11 06:49:22;;;;;;;21.85;20.27;;;9.10;99.90;;;;;;5121042;28;20054;-78
2023/12/11 06:51:49;;;;;;;22.20;20.42;;;9.10;99.90;;;;;;5119330;28;20035;-80
2023/12/11 06:54:15;;;;;;;23.52;21.67;;;9.10;99.90;;;;;;5122674;28;20044;-80
2023/12/11 06:56:41;;;;;;;20.17;18.10;;;9.20;99.90;;;;;;5119214;28;20039;-80
2023/12/11 06:59:07;;;;;;;19.67;17.75;;;9.20;99.90;;;;;;5121444;28;20426;-79
2023/12/11 07:01:34;;;;;;;19.73;17.77;;;9.20;99.90;;;;;;5121275;28;20495;-82
2023/12/11 07:04:00;;;;;;;20.10;18.60;;;9.20;99.90;;;;;;5121141;28;20051;-81
2023/12/11 07:06:26;;;;;;;20.50;18.35;;;9.20;99.90;;;;;;5122550;28;20027;-84
2023/12/11 07:08:53;;;;;;;22.77;20.80;;;9.20;99.90;;;;;;5119545;28;20368;-81
2023/12/11 07:11:19;;;;;;;23.75;21.95;;;9.20;99.90;;;;;;5120812;28;20051;-83
2023/12/11 07:13:45;;;;;;;24.15;22.30;;;9.10;99.90;;;;;;5119135;28;20396;-80
2023/12/11 07:16:10;;;;;;;23.65;21.75;;;9.10;99.90;;;;;;5120934;28;20048;-79
2023/12/11 07:18:37;;;;;;;28.17;25.90;;;9.10;99.90;;;;;;5102734;28;20036;-78
2023/12/11 07:21:12;;;;;;;27.77;25.83;;;9.10;99.90;;;;;;5120725;28;20052;-79
2023/12/11 07:23:38;;;;;;;28.85;26.48;;;9.10;99.90;;;;;;5122627;28;20044;-77
2023/12/11 07:26:08;;;;;;;36.15;34.05;;;9.00;99.90;;;;;;5119146;28;20036;-79
2023/12/11 07:28:35;;;;;;;37.80;35.08;;;9.00;99.90;;;;;;5120910;28;20050;-78
2023/12/11 07:31:02;;;;;;;38.85;36.40;;;9.00;99.90;;;;;;5121771;28;20153;-79
2023/12/11 07:33:28;;;;;;;36.22;33.40;;;9.00;99.90;;;;;;5124426;28;20043;-77
2023/12/11 07:35:54;;;;;;;36.92;34.33;;;8.90;99.90;;;;;;5123440;28;20066;-80
2023/12/11 07:38:19;;;;;;;34.05;31.50;;;9.00;99.90;;;;;;5122909;28;20044;-80
2023/12/11 07:40:45;;;;;;;33.00;30.23;;;9.00;99.90;;;;;;5124492;28;20044;-78
2023/12/11 07:43:11;;;;;;;42.25;39.55;;;9.00;99.90;;;;;;5123631;28;20036;-77
2023/12/11 07:45:37;;;;;;;42.72;39.95;;;9.00;99.90;;;;;;5126826;27;20059;-74
2023/12/11 07:48:04;;;;;;;45.40;42.70;;;8.90;99.90;;;;;;5106358;28;20044;-79
2023/12/11 07:50:29;;;;;;;47.10;44.03;;;8.80;99.90;;;;;;5125127;28;20043;-80
2023/12/11 07:52:55;;;;;;;47.92;45.17;;;8.80;99.90;;;;;;5123689;28;20086;-79
2023/12/11 07:55:21;;;;;;;48.33;45.58;;;8.70;99.90;;;;;;5124234;28;20098;-80
2023/12/11 07:57:47;;;;;;;50.25;47.15;;;8.70;99.90;;;;;;5124587;28;20082;-77
2023/12/11 08:00:13;;;;;;;51.97;49.38;;;8.70;99.90;;;;;;5106384;28;20060;-77
2023/12/11 08:02:39;;;;;;;52.95;50.35;;;8.70;99.90;;;;;;5125050;28;20126;-80
2023/12/11 08:05:04;;;;;;;53.15;50.25;;;8.60;99.90;;;;;;5122232;28;20111;-82
2023/12/11 08:07:30;;;;;;;53.10;50.10;;;8.60;99.90;;;;;;5123169;28;20414;-75
2023/12/11 08:09:56;;;;;;;50.05;47.45;;;8.60;99.90;;;;;;5121268;28;20063;-78
2023/12/11 08:12:22;;;;;;;46.65;44.08;;;8.60;99.90;;;;;;5120065;28;20111;-78
2023/12/11 08:14:48;;;;;;;50.25;47.65;;;8.60;99.90;;;;;;5109732;28;20096;-77
2023/12/11 08:17:13;;;;;;;48.10;45.67;;;8.70;99.90;;;;;;5121868;28;20048;-81
2023/12/11 08:19:39;;;;;;;48.80;46.60;;;8.70;99.90;;;;;;5115220;28;20092;-78
2023/12/11 08:22:05;;;;;;;46.13;43.33;;;8.70;99.90;;;;;;5122008;28;20046;-80
2023/12/11 08:24:31;;;;;;;47.45;45.25;;;8.70;99.90;;;;;;5123861;28;20131;-77
2023/12/11 08:26:56;;;;;;;45.67;43.40;;;8.70;99.90;;;;;;5122636;28;20086;-78
2023/12/11 08:29:23;;;;;;;42.53;40.60;;;8.70;99.90;;;;;;5121140;27;20509;-79
2023/12/11 08:31:49;;;;;;;42.35;40.17;;;8.70;99.90;;;;;;5122779;27;20050;-79
2023/12/11 08:34:15;;;;;;;42.80;40.60;;;8.70;99.90;;;;;;5121711;28;20097;-75
2023/12/11 08:36:41;;;;;;;43.25;41.30;;;8.70;99.90;;;;;;5124276;27;20039;-79
2023/12/11 08:39:09;;;;;;;38.42;36.40;;;8.70;99.90;;;;;;5122332;28;20050;-77
2023/12/11 08:41:36;;;;;;;41.72;39.80;;;8.70;99.90;;;;;;5123615;28;20077;-76
2023/12/11 08:44:02;;;;;;;39.72;37.80;;;8.70;99.90;;;;;;5119916;28;20050;-79
2023/12/11 08:46:27;;;;;;;41.05;39.38;;;8.70;99.90;;;;;;5122924;28;20035;-75
2023/12/11 08:48:53;;;;;;;42.58;40.55;;;8.70;99.90;;;;;;5122207;28;20067;-78
2023/12/11 08:51:19;;;;;;;41.45;39.60;;;8.70;99.90;;;;;;5122652;28;20039;-80
2023/12/11 08:53:45;;;;;;;42.10;40.50;;;8.70;99.90;;;;;;5124206;28;20072;-81
2023/12/11 08:56:13;;;;;;;44.63;42.35;;;8.70;99.90;;;;;;5121869;28;20065;-77
2023/12/11 08:58:38;;;;;;;45.45;43.25;;;8.60;99.90;;;;;;5124097;28;20035;-79
2023/12/11 09:01:05;;;;;;;46.53;44.42;;;8.60;99.90;;;;;;5104299;28;20104;-76
2023/12/11 09:03:31;;;;;;;48.50;46.38;;;8.70;99.90;;;;;;5124729;28;20440;-77
2023/12/11 09:05:57;;;;;;;46.97;44.92;;;8.70;99.90;;;;;;5121568;28;20050;-80
2023/12/11 09:08:22;;;;;;;47.00;45.10;;;8.70;99.90;;;;;;5121396;28;20043;-77
2023/12/11 09:10:48;;;;;;;44.88;42.95;;;8.70;99.90;;;;;;5122029;28;20071;-78
2023/12/11 09:13:14;;;;;;;39.20;37.58;;;8.70;99.90;;;;;;5120885;28;20043;-78
2023/12/11 09:15:40;;;;;;;46.47;44.55;;;8.70;99.90;;;;;;5122032;28;20407;-82
2023/12/11 09:18:08;;;;;;;41.47;39.83;;;8.60;99.90;;;;;;5121744;28;20040;-81
2023/12/11 09:20:34;;;;;;;43.28;41.67;;;8.60;99.90;;;;;;5122012;28;20058;-77
2023/12/11 09:22:59;;;;;;;45.25;43.45;;;8.70;99.90;;;;;;5120724;28;20055;-78
2023/12/11 09:25:25;;;;;;;46.88;45.08;;;8.70;99.90;;;;;;5121246;28;20052;-79
2023/12/11 09:27:51;;;;;;;45.47;43.63;;;8.70;99.90;;;;;;5122048;28;20039;-76
2023/12/11 09:30:16;;;;;;;41.55;39.83;;;8.80;99.90;;;;;;5120569;28;20067;-79
2023/12/11 09:32:42;;;;;;;48.75;47.05;;;8.80;99.90;;;;;;5122931;28;20056;-76
2023/12/11 09:35:10;;;;;;;47.80;45.83;;;8.80;99.90;;;;;;5120272;28;20039;-76
2023/12/11 09:37:36;;;;;;;49.63;47.78;;;8.80;99.90;;;;;;5121138;28;20093;-79
2023/12/11 09:40:02;;;;;;;49.25;47.45;;;8.80;99.90;;;;;;5120930;28;20036;-75
2023/12/11 09:42:30;;;;;;;50.97;48.83;;;8.80;99.90;;;;;;5122705;28;20181;-77
2023/12/11 09:44:56;;;;;;;44.90;43.10;;;8.80;99.90;;;;;;5120053;28;20047;-79
2023/12/11 09:47:29;;;;;;;49.80;47.60;;;8.80;99.90;;;;;;5119372;28;20054;-76
2023/12/11 09:49:55;;;;;;;48.47;46.17;;;8.80;99.90;;;;;;5119829;28;20044;-78
2023/12/11 09:52:24;;;;;;;51.90;49.50;;;8.90;99.90;;;;;;5116186;28;20053;-79
2023/12/11 09:54:49;;;;;;;50.13;48.00;;;8.90;99.90;;;;;;5121711;28;20047;-76
2023/12/11 09:57:16;;;;;;;52.95;50.65;;;8.90;99.90;;;;;;5120041;28;20459;-76
2023/12/11 09:59:43;;;;;;;55.40;52.97;;;9.00;99.90;;;;;;5120186;28;20052;-77
2023/12/11 10:02:14;;;;;;;51.28;49.20;;;9.00;99.90;;;;;;5122600;28;20040;-76
2023/12/11 10:05:03;;;;;;;46.75;44.90;;;9.00;99.90;;;;;;5120994;28;20065;-80
2023/12/11 10:07:29;;;;;;;47.85;46.00;;;9.10;99.90;;;;;;5121773;28;20058;-79
2023/12/11 10:09:55;;;;;;;48.65;46.55;;;9.10;99.90;;;;;;5119418;28;20047;-75
2023/12/11 10:12:21;;;;;;;50.55;48.25;;;9.10;99.90;;;;;;5120463;28;20311;-76
2023/12/11 10:15:03;;;;;;;48.40;46.47;;;9.10;99.90;;;;;;5121118;28;20043;-77
2023/12/11 10:17:31;;;;;;;48.28;46.03;;;9.00;99.90;;;;;;5119272;28;20082;-79
2023/12/11 10:19:57;;;;;;;51.42;49.33;;;9.00;99.90;;;;;;5119927;28;20043;-78
2023/12/11 10:22:28;;;;;;;51.22;49.08;;;9.00;99.90;;;;;;5119334;28;20047;-76
2023/12/11 10:24:54;;;;;;;49.03;47.25;;;9.00;99.90;;;;;;5121650;28;20077;-76
2023/12/11 10:27:24;;;;;;;44.80;43.10;;;9.00;99.90;;;;;;5120379;28;20052;-76
2023/12/11 10:30:22;;;;;;;47.70;45.88;;;8.90;99.90;;;;;;5099721;28;20039;-74
2023/12/11 10:32:48;;;;;;;49.17;47.28;;;8.90;99.90;;;;;;5097075;28;20085;-75
2023/12/11 10:35:23;;;;;;;51.13;49.00;;;8.90;99.90;;;;;;5118707;28;20040;-76
2023/12/11 10:37:49;;;;;;;45.95;43.80;;;8.90;99.90;;;;;;5120535;28;20109;-78
2023/12/11 10:40:15;;;;;;;48.30;46.53;;;8.80;99.90;;;;;;5120175;28;20044;-74
2023/12/11 10:42:41;;;;;;;49.53;47.47;;;8.90;99.90;;;;;;5120486;28;20027;-78
2023/12/11 10:45:07;;;;;;;42.05;40.25;;;8.90;99.90;;;;;;5121877;28;20075;-77
2023/12/11 10:47:34;;;;;;;43.25;41.42;;;8.90;99.90;;;;;;5119052;28;20092;-77
2023/12/11 10:50:02;;;;;;;45.47;43.65;;;9.00;99.90;;;;;;5121294;28;20043;-75
2023/12/11 10:52:28;;;;;;;43.35;41.53;;;8.90;99.90;;;;;;5120298;28;20047;-77
2023/12/11 10:54:55;;;;;;;42.20;40.28;;;9.00;99.90;;;;;;5121236;28;20039;-76
2023/12/11 10:57:23;;;;;;;42.65;40.78;;;9.00;99.90;;;;;;5120139;28;20027;-76
2023/12/11 10:59:51;;;;;;;44.42;42.58;;;9.00;99.90;;;;;;5119386;28;20048;-78
2023/12/11 11:02:19;;;;;;;44.28;42.08;;;9.00;99.90;;;;;;5120674;28;20514;-76
2023/12/11 11:04:46;;;;;;;41.00;39.13;;;9.00;99.90;;;;;;5121434;28;20044;-75
2023/12/11 11:07:28;;;;;;;48.28;45.78;;;9.00;99.90;;;;;;5125019;28;20463;-75
2023/12/11 11:10:13;;;;;;;41.28;39.67;;;9.10;99.90;;;;;;5123717;28;20095;-76
2023/12/11 11:13:01;;;;;;;42.15;40.25;;;9.20;99.90;;;;;;5124320;28;20437;-79
2023/12/11 11:15:28;;;;;;;32.38;29.92;;;9.20;99.90;;;;;;5124692;28;20112;-74
2023/12/11 11:18:14;;;;;;;40.05;38.03;;;9.20;99.90;;;;;;5122617;28;20515;-76
2023/12/11 11:20:40;;;;;;;38.63;36.30;;;9.20;99.90;;;;;;5124824;28;20141;-75
2023/12/11 11:23:16;;;;;;;37.95;36.10;;;9.20;99.90;;;;;;5124204;28;20289;-75
2023/12/11 11:25:51;;;;;;;38.73;37.00;;;9.20;99.90;;;;;;5124449;28;20024;-74
2023/12/11 11:28:50;;;;;;;40.30;38.80;;;9.10;99.90;;;;;;5124731;28;20050;-74
2023/12/11 11:31:16;;;;;;;36.78;35.38;;;8.90;99.90;;;;;;5068310;28;20775;-75
2023/12/11 11:33:46;;;;;;;36.97;35.15;;;8.80;99.90;;;;;;5122403;28;20069;-73
2023/12/11 11:36:16;;;;;;;44.55;42.55;;;8.80;99.90;;;;;;5124145;28;20050;-73
2023/12/11 11:39:00;;;;;;;41.20;39.00;;;8.80;99.90;;;;;;5123908;28;20051;-75
2023/12/11 11:41:30;;;;;;;46.97;45.08;;;8.70;99.90;;;;;;5122693;28;20086;-74
2023/12/11 11:43:56;;;;;;;41.58;39.75;;;8.80;99.90;;;;;;5120448;28;20044;-72
2023/12/11 11:46:21;;;;;;;41.35;39.30;;;8.80;99.90;;;;;;5124598;28;20059;-74
2023/12/11 11:48:47;;;;;;;43.40;41.45;;;8.80;99.90;;;;;;5123166;28;20036;-71
2023/12/11 11:51:14;;;;;;;42.25;40.63;;;8.80;99.90;;;;;;5106138;28;20103;-75
2023/12/11 11:53:40;;;;;;;31.45;29.55;;;8.80;99.90;;;;;;5123697;28;20067;-75
2023/12/11 11:56:07;;;;;;;33.80;32.13;;;8.80;99.90;;;;;;5121285;28;20040;-75
2023/12/11 11:58:32;;;;;;;31.75;30.23;;;8.80;99.90;;;;;;5123830;28;20047;-75
2023/12/11 12:01:05;;;;;;;30.08;28.58;;;8.80;99.90;;;;;;5123514;28;20062;-74
2023/12/11 12:03:43;;;;;;;25.90;24.25;;;8.80;99.90;;;;;;5125196;28;20521;-76
2023/12/11 12:06:10;;;;;;;26.48;25.23;;;8.80;99.90;;;;;;5123088;28;20046;-76
2023/12/11 12:08:41;;;;;;;26.83;25.33;;;8.90;99.90;;;;;;5123586;28;20364;-74
2023/12/11 12:11:07;;;;;;;23.80;22.30;;;8.90;99.90;;;;;;5122610;28;20076;-74
2023/12/11 12:13:38;;;;;;;30.40;28.35;;;8.90;99.90;;;;;;5123055;28;20060;-74
2023/12/11 12:16:05;;;;;;;27.08;25.40;;;8.80;99.90;;;;;;5120996;28;20044;-76
2023/12/11 12:18:30;;;;;;;33.15;30.98;;;8.80;99.90;;;;;;5123400;28;20168;-77
2023/12/11 12:21:04;;;;;;;32.92;31.33;;;8.80;99.90;;;;;;5123325;28;20051;-74
2023/12/11 12:23:30;;;;;;;30.92;29.23;;;8.80;99.90;;;;;;5122381;28;20047;-76
2023/12/11 12:25:59;;;;;;;38.92;36.72;;;8.70;99.90;;;;;;5121815;28;20074;-74
2023/12/11 12:28:25;;;;;;;37.70;35.83;;;8.70;99.90;;;;;;5124914;28;20035;-76
2023/12/11 12:30:50;;;;;;;42.10;39.33;;;8.60;99.90;;;;;;5120804;28;20043;-75
2023/12/11 12:33:18;;;;;;;32.67;30.95;;;8.50;99.90;;;;;;5122576;28;20044;-75